Time;durP1;ratioP1;P1;durP2;ratioP2;P2;SDS_P1;SDS_P2;PMS_P1;PMS_P2;Temp;Humidity;BMP_temperature;BMP_pressure;BME280_temperature;BME280_humidity;BME280_pressure;Samples;Min_cycle;Max_cycle;Signal;HPM_P1;HPM_P2
2024/02/24 00:02:52;;;;;;;4.88;2.75;;;0.00;99.90;;;;;;20942575;27;20511;-39
2024/02/24 00:12:54;;;;;;;6.55;3.38;;;-0.10;99.90;;;;;;20884612;27;20134;-39
2024/02/24 00:22:56;;;;;;;5.85;3.05;;;-0.20;99.90;;;;;;20919227;27;20267;-39
2024/02/24 00:32:58;;;;;;;4.85;2.92;;;-0.30;99.90;;;;;;20939126;27;20207;-39
2024/02/24 00:43:00;;;;;;;4.22;2.67;;;-0.30;99.90;;;;;;20895918;28;20191;-39
2024/02/24 00:53:02;;;;;;;6.88;3.30;;;-0.50;99.90;;;;;;20883276;27;20577;-39
2024/02/24 01:03:07;;;;;;;7.30;4.28;;;-0.80;99.90;;;;;;20938795;27;20459;-39
2024/02/24 01:13:09;;;;;;;8.02;4.35;;;-0.80;99.90;;;;;;20952414;27;20126;-39
2024/02/24 01:23:12;;;;;;;8.48;4.50;;;-0.80;99.90;;;;;;20949953;27;20133;-39
2024/02/24 01:33:14;;;;;;;7.53;3.92;;;-1.00;99.90;;;;;;20950696;27;20796;-39
2024/02/24 01:43:24;;;;;;;5.70;3.30;;;-1.10;99.90;;;;;;20940409;27;21852;-39
2024/02/24 01:53:29;;;;;;;8.15;3.70;;;-1.20;99.90;;;;;;20896683;27;20192;-40
2024/02/24 02:03:31;;;;;;;7.55;3.50;;;-1.30;99.90;;;;;;20895494;27;20992;-41
2024/02/24 02:13:33;;;;;;;11.95;5.45;;;-1.30;99.90;;;;;;20930593;27;20570;-39
2024/02/24 02:23:34;;;;;;;6.55;3.67;;;-1.10;99.90;;;;;;20947949;27;20172;-39
2024/02/24 02:33:36;;;;;;;6.65;3.58;;;-0.80;99.90;;;;;;20943415;27;20134;-40
2024/02/24 02:43:38;;;;;;;5.43;3.15;;;-0.80;99.90;;;;;;20913836;27;20130;-42
2024/02/24 02:53:40;;;;;;;6.32;3.65;;;-1.00;99.90;;;;;;20890092;27;20178;-40
2024/02/24 03:03:45;;;;;;;4.78;2.60;;;-0.90;99.90;;;;;;20890132;27;20715;-40
2024/02/24 03:13:47;;;;;;;3.97;2.28;;;-1.00;99.90;;;;;;20922647;27;21276;-41
2024/02/24 03:23:49;;;;;;;5.40;3.13;;;-1.00;99.90;;;;;;20889334;27;20099;-40
2024/02/24 03:33:52;;;;;;;5.03;2.78;;;-1.10;99.90;;;;;;20944233;27;20998;-40
2024/02/24 03:43:59;;;;;;;4.55;2.80;;;-1.30;99.90;;;;;;20941024;27;20066;-41
2024/02/24 03:54:01;;;;;;;5.70;3.20;;;-1.40;99.90;;;;;;20941952;27;20121;-40
2024/02/24 04:04:03;;;;;;;7.03;3.45;;;-1.50;99.90;;;;;;20906186;27;20062;-40
2024/02/24 04:14:05;;;;;;;8.23;4.03;;;-1.50;99.90;;;;;;20888082;27;20897;-40
2024/02/24 04:24:07;;;;;;;11.82;4.70;;;-1.30;99.90;;;;;;20886506;27;20162;-40
2024/02/24 04:34:09;;;;;;;11.15;3.65;;;-0.80;99.90;;;;;;20886001;27;20167;-42
2024/02/24 04:44:11;;;;;;;7.57;3.80;;;-0.50;99.90;;;;;;20902652;28;20062;-40
2024/02/24 04:54:16;;;;;;;8.85;3.63;;;-0.40;99.90;;;;;;20938764;28;20169;-40
2024/02/24 05:04:18;;;;;;;7.80;3.20;;;-0.10;99.90;;;;;;20883249;28;21786;-42
2024/02/24 05:14:20;;;;;;;5.35;3.00;;;0.00;99.90;;;;;;20889858;28;20235;-40
2024/02/24 05:24:21;;;;;;;9.68;3.85;;;0.20;99.90;;;;;;20882088;28;20067;-41
2024/02/24 05:34:29;;;;;;;8.35;4.10;;;0.30;99.90;;;;;;20932687;28;20150;-40
2024/02/24 05:44:31;;;;;;;12.77;5.60;;;0.20;99.90;;;;;;20908664;27;20492;-39
2024/02/24 05:54:33;;;;;;;10.00;5.22;;;0.10;99.90;;;;;;20947642;27;20283;-40
2024/02/24 06:04:36;;;;;;;10.52;5.18;;;0.20;99.90;;;;;;20925768;27;21082;-40
2024/02/24 06:14:38;;;;;;;13.70;5.90;;;0.30;99.90;;;;;;20901012;27;21020;-40
2024/02/24 06:24:39;;;;;;;8.82;4.35;;;0.40;99.90;;;;;;20931360;27;20677;-40
2024/02/24 06:34:45;;;;;;;11.00;4.55;;;0.40;99.90;;;;;;20902384;27;20085;-42
2024/02/24 06:44:47;;;;;;;10.73;4.50;;;0.50;99.90;;;;;;20889410;27;20166;-44
2024/02/24 06:54:51;;;;;;;8.35;3.95;;;0.70;99.90;;;;;;20916484;27;20859;-42
2024/02/24 07:04:53;;;;;;;8.73;3.63;;;0.80;99.90;;;;;;20938722;27;20211;-40
2024/02/24 07:14:55;;;;;;;9.55;3.95;;;1.00;99.90;;;;;;20904159;27;20035;-40
2024/02/24 07:24:56;;;;;;;9.60;3.55;;;1.20;99.90;;;;;;20945232;27;20183;-41
2024/02/24 07:34:59;;;;;;;8.40;3.25;;;1.10;99.90;;;;;;20898022;27;20134;-40
2024/02/24 07:45:01;;;;;;;4.55;2.58;;;1.20;99.90;;;;;;20891355;27;20165;-41
2024/02/24 07:55:03;;;;;;;7.30;3.55;;;1.60;99.90;;;;;;20888248;27;21076;-40
2024/02/24 08:05:05;;;;;;;9.68;3.58;;;2.70;99.90;;;;;;20896374;27;20150;-43
2024/02/24 08:15:07;;;;;;;10.02;4.30;;;4.00;99.90;;;;;;20920489;27;20161;-40
2024/02/24 08:25:09;;;;;;;9.40;3.85;;;3.70;99.90;;;;;;20914092;27;20130;-40
2024/02/24 08:35:15;;;;;;;8.23;3.85;;;3.30;99.90;;;;;;20910411;27;20188;-41
2024/02/24 08:45:17;;;;;;;9.60;4.38;;;3.60;99.90;;;;;;20935152;28;21284;-41
2024/02/24 08:55:19;;;;;;;6.45;2.17;;;3.90;99.90;;;;;;20932979;28;20130;-40
2024/02/24 09:05:21;;;;;;;6.90;2.20;;;4.20;99.90;;;;;;20893820;28;20719;-41
2024/02/24 09:15:26;;;;;;;7.35;1.40;;;4.10;99.90;;;;;;20898183;27;20244;-41
2024/02/24 09:25:27;;;;;;;3.53;1.40;;;3.80;99.90;;;;;;20908373;27;20122;-41
2024/02/24 09:35:29;;;;;;;4.97;2.00;;;3.70;99.90;;;;;;20923952;27;20131;-41
2024/02/24 09:45:41;;;;;;;4.60;1.55;;;3.60;99.90;;;;;;20901745;27;20150;-41
2024/02/24 09:55:44;;;;;;;6.00;1.60;;;4.00;99.90;;;;;;20930008;27;21186;-42
2024/02/24 10:05:51;;;;;;;3.70;1.80;;;4.50;99.90;;;;;;20945010;27;21132;-41
2024/02/24 10:15:55;;;;;;;3.30;0.90;;;5.70;99.90;;;;;;20932363;27;20820;-42
2024/02/24 10:25:58;;;;;;;3.03;0.68;;;7.00;99.90;;;;;;20949959;27;20203;-41
2024/02/24 10:36:07;;;;;;;2.95;0.70;;;7.00;99.90;;;;;;20926584;27;20142;-43
2024/02/24 10:46:09;;;;;;;2.95;0.70;;;6.80;99.90;;;;;;20916440;27;20231;-43
2024/02/24 10:56:15;;;;;;;2.53;0.70;;;7.30;99.90;;;;;;20919903;27;20430;-43
2024/02/24 11:06:53;;;;;;;6.63;1.08;;;9.10;99.90;;;;;;20890104;27;20134;-42
2024/02/24 11:16:58;;;;;;;3.72;0.98;;;7.50;99.90;;;;;;20928754;27;20126;-42
2024/02/24 11:27:01;;;;;;;5.10;1.33;;;5.70;99.90;;;;;;20903980;27;20146;-41
2024/02/24 11:37:04;;;;;;;5.78;1.40;;;4.80;99.90;;;;;;20900254;27;21240;-41
2024/02/24 11:47:07;;;;;;;4.65;1.20;;;4.30;99.90;;;;;;20940943;27;20681;-43
2024/02/24 11:57:10;;;;;;;6.20;1.45;;;4.40;99.90;;;;;;20918659;27;20671;-41
2024/02/24 12:07:12;;;;;;;6.03;1.90;;;4.50;99.90;;;;;;20922228;27;20156;-41
2024/02/24 12:17:14;;;;;;;5.28;1.92;;;4.90;99.90;;;;;;20913611;27;21271;-41
2024/02/24 12:27:16;;;;;;;8.93;2.20;;;5.60;99.90;;;;;;20893066;27;20461;-41
2024/02/24 12:37:19;;;;;;;6.15;1.88;;;5.70;99.90;;;;;;20910830;27;20609;-42
2024/02/24 12:47:21;;;;;;;3.97;1.40;;;6.30;99.90;;;;;;20920321;28;20196;-41
2024/02/24 12:57:23;;;;;;;3.70;1.45;;;6.50;99.90;;;;;;20950879;27;20139;-42
2024/02/24 13:07:25;;;;;;;5.47;1.00;;;6.50;99.90;;;;;;20939189;27;20204;-45
2024/02/24 13:17:27;;;;;;;5.18;1.33;;;6.00;99.90;;;;;;20903282;27;20067;-42
2024/02/24 13:27:29;;;;;;;5.10;1.85;;;5.40;99.90;;;;;;20910425;27;20158;-43
2024/02/24 13:37:31;;;;;;;5.60;2.00;;;5.00;99.90;;;;;;20908752;27;20168;-43
2024/02/24 13:47:34;;;;;;;6.10;1.98;;;4.70;99.90;;;;;;20907377;27;21666;-43
2024/02/24 13:57:36;;;;;;;6.03;1.02;;;4.60;99.90;;;;;;20932886;27;21049;-44
2024/02/24 14:07:40;;;;;;;4.05;1.33;;;5.40;99.90;;;;;;20933192;27;20152;-43
2024/02/24 14:17:45;;;;;;;5.18;1.20;;;6.00;99.90;;;;;;20926394;27;20496;-40
2024/02/24 14:27:47;;;;;;;3.55;1.30;;;5.30;99.90;;;;;;20926972;27;20066;-41
2024/02/24 14:37:49;;;;;;;6.28;1.73;;;4.80;99.90;;;;;;20909200;27;20131;-42
2024/02/24 14:47:51;;;;;;;2.47;1.30;;;5.00;99.90;;;;;;20915462;27;21189;-42
2024/02/24 14:57:53;;;;;;;7.10;1.77;;;5.00;99.90;;;;;;20932297;27;20521;-41
2024/02/24 15:07:56;;;;;;;5.10;1.60;;;4.70;99.90;;;;;;20907615;27;20151;-41
2024/02/24 15:18:02;;;;;;;3.75;1.38;;;4.30;99.90;;;;;;20919948;27;20071;-41
2024/02/24 15:28:05;;;;;;;5.63;1.73;;;3.80;99.90;;;;;;20886142;27;20591;-41
2024/02/24 15:38:07;;;;;;;5.57;2.03;;;3.60;99.90;;;;;;20905024;27;20792;-41
2024/02/24 15:48:16;;;;;;;9.73;4.80;;;3.40;99.90;;;;;;20927111;27;20905;-42
2024/02/24 15:58:18;;;;;;;10.52;5.80;;;3.20;99.90;;;;;;20882071;27;20236;-40
2024/02/24 16:08:23;;;;;;;10.02;4.90;;;2.90;99.90;;;;;;20885031;27;20165;-41
2024/02/24 16:18:26;;;;;;;7.75;2.63;;;2.70;99.90;;;;;;20898476;27;20165;-44
2024/02/24 16:28:28;;;;;;;8.57;3.72;;;2.40;99.90;;;;;;20887548;27;20923;-40
2024/02/24 16:38:30;;;;;;;13.65;7.82;;;1.80;99.90;;;;;;20908177;27;20925;-42
2024/02/24 16:48:34;;;;;;;2.60;1.60;;;1.50;99.90;;;;;;20886115;28;20058;-41
2024/02/24 16:58:36;;;;;;;10.80;5.55;;;1.30;99.90;;;;;;20916742;28;21191;-42
2024/02/24 17:08:38;;;;;;;5.45;3.13;;;1.10;99.90;;;;;;20908656;28;20244;-43
2024/02/24 17:18:40;;;;;;;6.88;2.85;;;1.10;99.90;;;;;;20891953;28;20254;-40
2024/02/24 17:28:43;;;;;;;6.32;3.50;;;1.20;99.90;;;;;;20922780;28;20165;-41
2024/02/24 17:38:45;;;;;;;7.78;4.18;;;1.40;99.90;;;;;;20943306;27;20126;-40
2024/02/24 17:48:47;;;;;;;13.75;6.15;;;1.30;99.90;;;;;;20894053;27;21189;-41
2024/02/24 17:58:49;;;;;;;15.90;7.47;;;1.30;99.90;;;;;;20932816;27;20943;-41
2024/02/24 18:08:51;;;;;;;13.93;6.13;;;1.20;99.90;;;;;;20897031;27;20492;-41
2024/02/24 18:18:53;;;;;;;16.35;6.80;;;1.20;99.90;;;;;;20918380;27;20450;-41
2024/02/24 18:29:00;;;;;;;19.88;11.95;;;1.20;99.90;;;;;;20896416;27;20126;-41
2024/02/24 18:39:02;;;;;;;10.63;3.45;;;1.30;99.90;;;;;;20833653;28;20151;-41
2024/02/24 18:49:04;;;;;;;4.28;1.50;;;1.40;99.90;;;;;;20833361;28;20520;-41
2024/02/24 18:59:06;;;;;;;1.92;1.23;;;1.10;99.90;;;;;;20834957;28;20043;-42
2024/02/24 19:09:08;;;;;;;0.40;0.30;;;0.80;99.90;;;;;;20876874;27;20875;-42
2024/02/24 19:19:14;;;;;;;1.10;0.38;;;0.60;99.90;;;;;;20922218;27;20287;-41
2024/02/24 19:29:16;;;;;;;4.18;3.28;;;0.60;99.90;;;;;;20887406;27;21416;-43
2024/02/24 19:39:18;;;;;;;1.02;0.45;;;0.60;99.90;;;;;;20886372;27;20165;-41
2024/02/24 19:49:23;;;;;;;1.95;1.10;;;0.70;99.90;;;;;;20932277;27;20159;-44
2024/02/24 19:59:25;;;;;;;4.50;2.95;;;0.70;99.90;;;;;;20922722;27;21746;-44
2024/02/24 20:09:27;;;;;;;8.27;4.38;;;0.90;99.90;;;;;;20944257;27;20150;-44
2024/02/24 20:19:29;;;;;;;12.95;6.50;;;1.10;99.90;;;;;;20921808;27;20074;-41
2024/02/24 20:29:31;;;;;;;15.52;6.55;;;1.10;99.90;;;;;;20886767;27;20075;-44
2024/02/24 20:39:32;;;;;;;16.55;7.35;;;1.20;99.90;;;;;;20883148;27;20071;-43
2024/02/24 20:49:34;;;;;;;4.82;3.15;;;1.10;99.90;;;;;;20933683;28;20088;-42
2024/02/24 20:59:36;;;;;;;3.78;2.20;;;1.00;99.90;;;;;;20884096;28;20066;-44
2024/02/24 21:09:38;;;;;;;6.88;4.03;;;0.90;99.90;;;;;;20921447;27;20550;-43
2024/02/24 21:19:39;;;;;;;17.92;8.85;;;1.00;99.90;;;;;;20917765;27;20063;-43
2024/02/24 21:29:41;;;;;;;15.27;8.43;;;1.00;99.90;;;;;;20896117;27;20067;-42
2024/02/24 21:39:43;;;;;;;18.27;9.93;;;1.10;99.90;;;;;;20895357;27;20806;-43
2024/02/24 21:49:45;;;;;;;22.73;11.50;;;1.20;99.90;;;;;;20898714;27;20751;-43
2024/02/24 21:59:48;;;;;;;41.25;9.93;;;1.40;99.90;;;;;;20886463;27;20179;-43
2024/02/24 22:09:50;;;;;;;516.17;40.72;;;1.30;99.90;;;;;;20897162;27;20152;-42
2024/02/24 22:19:52;;;;;;;18.80;9.63;;;1.40;99.90;;;;;;20890724;27;20123;-42
2024/02/24 22:29:54;;;;;;;291.98;25.45;;;1.50;99.90;;;;;;20873265;27;20181;-46
2024/02/24 22:39:56;;;;;;;98.82;15.02;;;1.50;99.90;;;;;;20895088;27;20146;-44
2024/02/24 22:49:59;;;;;;;16.50;7.70;;;1.30;99.90;;;;;;20879446;27;20063;-43
2024/02/24 23:00:01;;;;;;;11.13;6.53;;;1.30;99.90;;;;;;20892734;27;21192;-43
2024/02/24 23:10:03;;;;;;;7.53;3.97;;;1.30;99.90;;;;;;20950479;27;21130;-41
2024/02/24 23:20:06;;;;;;;10.32;5.07;;;1.30;99.90;;;;;;20928011;27;21130;-41
2024/02/24 23:30:09;;;;;;;6.57;4.13;;;1.30;99.90;;;;;;20889991;27;20092;-43
2024/02/24 23:40:11;;;;;;;7.20;3.55;;;1.40;99.90;;;;;;20946486;27;21273;-42
2024/02/24 23:50:13;;;;;;;5.90;3.50;;;1.40;99.90;;;;;;20941074;27;20071;-42
